createdAt,value
2023-01-20T00:01:46.772Z,1.20
2023-01-20T00:04:15.429Z,1.10
2023-01-20T00:06:42.871Z,1.10
2023-01-20T00:09:16.419Z,1.20
2023-01-20T00:11:44.654Z,1.10
2023-01-20T00:14:11.772Z,1.00
2023-01-20T00:16:40.256Z,1.10
2023-01-20T00:19:07.959Z,1.10
2023-01-20T00:21:35.206Z,1.10
2023-01-20T00:24:02.130Z,1.20
2023-01-20T00:26:29.113Z,1.10
2023-01-20T00:28:58.153Z,1.10
2023-01-20T00:31:27.954Z,1.00
2023-01-20T00:33:57.041Z,1.10
2023-01-20T00:36:25.961Z,1.10
2023-01-20T00:38:53.410Z,1.10
2023-01-20T00:41:20.966Z,1.10
2023-01-20T00:43:48.300Z,1.10
2023-01-20T00:46:16.186Z,1.10
2023-01-20T00:48:43.653Z,1.10
2023-01-20T00:51:11.398Z,1.10
2023-01-20T00:53:38.252Z,1.10
2023-01-20T00:56:06.184Z,1.10
2023-01-20T00:58:33.547Z,1.10
2023-01-20T01:01:01.115Z,1.10
2023-01-20T01:03:28.328Z,1.20
2023-01-20T01:05:55.346Z,1.10
2023-01-20T01:08:25.203Z,1.20
2023-01-20T01:10:56.567Z,1.20
2023-01-20T01:13:23.398Z,1.20
2023-01-20T01:15:50.688Z,1.20
2023-01-20T01:18:17.790Z,1.20
2023-01-20T01:20:45.165Z,1.10
2023-01-20T01:23:12.853Z,1.20
2023-01-20T01:25:40.146Z,1.10
2023-01-20T01:28:07.433Z,1.20
2023-01-20T01:30:34.404Z,1.20
2023-01-20T01:33:01.418Z,1.20
2023-01-20T01:35:28.479Z,1.20
2023-01-20T01:37:55.333Z,1.20
2023-01-20T01:40:22.247Z,1.20
2023-01-20T01:42:49.123Z,1.30
2023-01-20T01:45:24.243Z,1.30
2023-01-20T01:47:56.933Z,1.20
2023-01-20T01:50:33.207Z,1.20
2023-01-20T01:53:00.889Z,1.30
2023-01-20T01:55:31.618Z,1.20
2023-01-20T01:58:01.456Z,1.30
2023-01-20T02:00:28.543Z,1.30
2023-01-20T02:02:57.417Z,1.30
2023-01-20T02:05:27.189Z,1.30
2023-01-20T02:07:55.607Z,1.30
2023-01-20T02:10:22.537Z,1.30
2023-01-20T02:12:51.847Z,1.30
2023-01-20T02:15:26.177Z,1.30
2023-01-20T02:18:01.737Z,1.30
2023-01-20T02:20:47.434Z,1.30
2023-01-20T02:23:41.469Z,1.20
2023-01-20T02:26:14.447Z,1.20
2023-01-20T02:29:13.289Z,1.10
2023-01-20T02:31:58.906Z,1.10
2023-01-20T02:34:36.858Z,1.20
2023-01-20T02:37:15.597Z,1.20
2023-01-20T02:40:10.395Z,1.30
2023-01-20T02:42:42.744Z,1.30
2023-01-20T02:45:24.321Z,1.20
2023-01-20T02:48:22.339Z,1.10
2023-01-20T02:51:09.294Z,1.10
2023-01-20T02:53:48.232Z,1.10
2023-01-20T02:56:16.893Z,1.10
2023-01-20T02:59:09.937Z,1.10
2023-01-20T03:01:48.681Z,1.10
2023-01-20T03:04:19.349Z,1.00
2023-01-20T03:06:52.309Z,1.00
2023-01-20T03:09:24.143Z,1.10
2023-01-20T03:12:01.835Z,1.10
2023-01-20T03:14:28.857Z,1.00
2023-01-20T03:16:56.568Z,1.10
2023-01-20T03:19:24.055Z,1.00
2023-01-20T03:21:51.506Z,0.90
2023-01-20T03:24:18.524Z,1.00
2023-01-20T03:26:45.477Z,0.90
2023-01-20T03:29:13.153Z,0.90
2023-01-20T03:31:45.005Z,0.90
2023-01-20T03:34:15.850Z,0.90
2023-01-20T03:36:44.719Z,0.90
2023-01-20T03:39:15.741Z,0.90
2023-01-20T03:42:03.848Z,0.80
2023-01-20T03:44:36.522Z,0.80
2023-01-20T03:47:06.506Z,0.90
2023-01-20T03:49:55.047Z,0.90
2023-01-20T03:52:47.703Z,1.00
2023-01-20T03:55:41.151Z,1.00
2023-01-20T03:58:23.815Z,1.00
2023-01-20T04:00:51.953Z,1.00
2023-01-20T04:03:29.960Z,1.00
2023-01-20T04:06:00.151Z,0.90
2023-01-20T04:08:33.741Z,0.90
2023-01-20T04:11:04.440Z,1.00
2023-01-20T04:13:31.522Z,1.00
2023-01-20T04:16:01.312Z,1.00
2023-01-20T04:18:28.186Z,0.90
2023-01-20T04:21:03.050Z,1.00
2023-01-20T04:23:35.950Z,1.00
2023-01-20T04:26:03.614Z,1.00
2023-01-20T04:28:30.511Z,1.00
2023-01-20T04:30:57.738Z,1.00
2023-01-20T04:33:24.975Z,1.10
2023-01-20T04:35:52.110Z,1.10
2023-01-20T04:38:19.090Z,1.00
2023-01-20T04:40:46.415Z,1.00
2023-01-20T04:43:13.804Z,1.00
2023-01-20T04:45:41.726Z,1.10
2023-01-20T04:48:09.405Z,1.10
2023-01-20T04:50:40.860Z,1.10
2023-01-20T04:53:13.672Z,1.10
2023-01-20T04:55:40.808Z,1.10
2023-01-20T04:58:09.549Z,1.10
2023-01-20T05:00:39.615Z,1.10
2023-01-20T05:03:06.937Z,1.10
2023-01-20T05:05:34.087Z,1.10
2023-01-20T05:08:01.854Z,1.10
2023-01-20T05:10:28.714Z,1.10
2023-01-20T05:12:55.942Z,1.00
2023-01-20T05:15:22.874Z,0.90
2023-01-20T05:17:50.109Z,0.90
2023-01-20T05:20:19.142Z,1.00
2023-01-20T05:22:46.992Z,1.00
2023-01-20T05:25:14.386Z,1.10
2023-01-20T05:27:41.942Z,1.10
2023-01-20T05:30:09.603Z,1.10
2023-01-20T05:32:36.609Z,1.10
2023-01-20T05:35:05.190Z,1.10
2023-01-20T05:37:32.037Z,1.10
2023-01-20T05:39:58.878Z,1.10
2023-01-20T05:42:25.669Z,1.00
2023-01-20T05:44:52.730Z,1.10
2023-01-20T05:47:19.530Z,1.10
2023-01-20T05:49:46.591Z,1.20
2023-01-20T05:52:13.387Z,1.10
2023-01-20T05:54:40.830Z,1.10
2023-01-20T05:57:08.170Z,1.20
2023-01-20T05:59:35.124Z,1.10
2023-01-20T06:02:05.360Z,1.20
2023-01-20T06:04:32.329Z,1.10
2023-01-20T06:06:59.499Z,1.10
2023-01-20T06:09:26.540Z,1.20
2023-01-20T06:11:53.472Z,1.20
2023-01-20T06:14:21.068Z,1.20
2023-01-20T06:16:48.044Z,1.20
2023-01-20T06:19:15.110Z,1.20
2023-01-20T06:21:42.005Z,1.20
2023-01-20T06:24:11.925Z,1.30
2023-01-20T06:26:39.128Z,1.20
2023-01-20T06:29:06.469Z,1.20
2023-01-20T06:31:33.665Z,1.10
2023-01-20T06:34:00.630Z,1.10
2023-01-20T06:36:28.374Z,1.20
2023-01-20T06:38:55.217Z,1.20
2023-01-20T06:41:22.063Z,1.20
2023-01-20T06:43:50.167Z,1.20
2023-01-20T06:46:17.345Z,1.20
2023-01-20T06:48:45.197Z,1.20
2023-01-20T06:51:20.431Z,1.20
2023-01-20T06:53:48.199Z,1.20
2023-01-20T06:56:16.600Z,1.10
2023-01-20T06:58:43.715Z,1.20
2023-01-20T07:01:23.713Z,1.20
2023-01-20T07:03:51.004Z,1.20
2023-01-20T07:06:29.407Z,1.20
2023-01-20T07:08:58.796Z,1.20
2023-01-20T07:11:26.255Z,1.20
2023-01-20T07:13:53.598Z,1.20
2023-01-20T07:16:20.597Z,1.20
2023-01-20T07:18:49.426Z,1.30
2023-01-20T07:21:17.030Z,1.20
2023-01-20T07:23:43.957Z,1.20
2023-01-20T07:26:13.791Z,1.20
2023-01-20T07:28:41.202Z,1.20
2023-01-20T07:31:13.683Z,1.30
2023-01-20T07:33:40.821Z,1.20
2023-01-20T07:36:12.436Z,1.20
2023-01-20T07:38:39.796Z,1.30
2023-01-20T07:41:16.393Z,1.30
2023-01-20T07:43:44.243Z,1.30
2023-01-20T07:46:15.790Z,1.30
2023-01-20T07:48:42.660Z,1.30
2023-01-20T07:51:11.610Z,1.30
2023-01-20T07:53:41.048Z,1.40
2023-01-20T07:56:15.926Z,1.30
2023-01-20T07:58:45.211Z,1.40
2023-01-20T08:01:16.714Z,1.30
2023-01-20T08:03:44.617Z,1.30
2023-01-20T08:06:14.023Z,1.30
2023-01-20T08:08:41.473Z,1.40
2023-01-20T08:11:09.731Z,1.40
2023-01-20T08:13:36.924Z,1.40
2023-01-20T08:16:06.023Z,1.30
2023-01-20T08:18:35.265Z,1.30
2023-01-20T08:21:06.543Z,1.30
2023-01-20T08:23:34.397Z,1.30
2023-01-20T08:26:03.868Z,1.40
2023-01-20T08:28:31.970Z,1.50
2023-01-20T08:31:17.771Z,1.50
2023-01-20T08:33:46.072Z,1.60
2023-01-20T08:36:17.014Z,1.50
2023-01-20T08:38:44.807Z,1.50
2023-01-20T08:41:21.252Z,1.60
2023-01-20T08:43:48.911Z,1.50
2023-01-20T08:46:18.508Z,1.50
2023-01-20T08:48:46.199Z,1.50
2023-01-20T08:51:21.237Z,1.60
2023-01-20T08:53:49.108Z,1.60
2023-01-20T08:56:16.863Z,1.60
2023-01-20T08:58:44.963Z,1.50
2023-01-20T09:01:17.347Z,1.60
2023-01-20T09:03:59.024Z,1.60
2023-01-20T09:06:32.332Z,1.70
2023-01-20T09:08:59.300Z,1.80
2023-01-20T09:11:26.405Z,1.80
2023-01-20T09:13:54.238Z,1.80
2023-01-20T09:16:21.141Z,1.80
2023-01-20T09:18:48.445Z,1.90
2023-01-20T09:21:15.500Z,1.90
2023-01-20T09:23:48.402Z,2.00
2023-01-20T09:26:22.823Z,2.00
2023-01-20T09:29:09.982Z,1.90
2023-01-20T09:31:46.304Z,1.90
2023-01-20T09:34:19.815Z,1.90
2023-01-20T09:36:50.574Z,1.90
2023-01-20T09:39:36.196Z,2.00
2023-01-20T09:42:31.203Z,1.90
2023-01-20T09:45:32.627Z,2.10
2023-01-20T09:48:47.447Z,2.20
2023-01-20T09:51:45.342Z,2.30
2023-01-20T09:54:25.193Z,2.20
2023-01-20T09:56:54.815Z,2.00
2023-01-20T09:59:35.747Z,1.70
2023-01-20T10:02:11.654Z,1.90
2023-01-20T10:04:50.772Z,2.00
2023-01-20T10:07:42.577Z,2.10
2023-01-20T10:10:17.409Z,1.90
2023-01-20T10:12:47.958Z,2.20
2023-01-20T10:15:19.718Z,2.40
2023-01-20T10:17:52.082Z,2.50
2023-01-20T10:20:41.476Z,2.40
2023-01-20T10:23:16.907Z,2.70
2023-01-20T10:26:09.920Z,2.60
2023-01-20T10:28:41.865Z,2.70
2023-01-20T10:31:09.936Z,2.90
2023-01-20T10:33:45.317Z,2.50
2023-01-20T10:36:31.501Z,2.40
2023-01-20T10:39:04.491Z,2.60
2023-01-20T10:41:31.263Z,2.90
2023-01-20T10:44:00.145Z,2.90
2023-01-20T10:46:33.047Z,3.10
2023-01-20T10:49:21.322Z,3.20
2023-01-20T10:52:28.789Z,3.30
2023-01-20T10:55:20.565Z,3.50
2023-01-20T10:57:56.157Z,3.50
2023-01-20T11:00:26.903Z,3.30
2023-01-20T11:02:56.997Z,3.10
2023-01-20T11:05:30.263Z,3.10
2023-01-20T11:08:00.315Z,2.90
2023-01-20T11:10:32.706Z,3.10
2023-01-20T11:13:02.422Z,3.00
2023-01-20T11:15:33.182Z,3.30
2023-01-20T11:18:15.416Z,3.00
2023-01-20T11:21:04.311Z,3.00
2023-01-20T11:23:34.431Z,3.10
2023-01-20T11:26:11.688Z,3.20
2023-01-20T11:28:49.452Z,3.30
2023-01-20T11:31:17.376Z,3.10
2023-01-20T11:34:01.853Z,3.10
2023-01-20T11:36:29.627Z,3.40
2023-01-20T11:38:57.494Z,3.20
2023-01-20T11:41:29.711Z,3.30
2023-01-20T11:44:00.855Z,3.50
2023-01-20T11:46:32.251Z,3.30
2023-01-20T11:49:22.623Z,3.40
2023-01-20T11:51:49.472Z,3.50
2023-01-20T11:54:22.989Z,3.40
2023-01-20T11:56:57.571Z,3.40
2023-01-20T11:59:31.664Z,3.30
2023-01-20T12:02:02.827Z,3.50
2023-01-20T12:04:58.863Z,3.50
2023-01-20T12:07:39.321Z,3.50
2023-01-20T12:10:32.657Z,3.50
2023-01-20T12:13:12.396Z,3.30
2023-01-20T12:15:44.576Z,3.30
2023-01-20T12:19:02.835Z,3.20
2023-01-20T12:21:46.039Z,3.30
2023-01-20T12:25:06.779Z,3.30
2023-01-20T12:27:35.873Z,3.30
2023-01-20T12:30:10.951Z,3.20
2023-01-20T12:32:40.314Z,3.00
2023-01-20T12:35:14.604Z,3.10
2023-01-20T12:38:05.721Z,2.90
2023-01-20T12:40:45.087Z,2.90
2023-01-20T12:43:24.539Z,3.00
2023-01-20T12:46:09.530Z,2.90
2023-01-20T12:48:48.233Z,2.80
2023-01-20T12:51:35.140Z,2.80
2023-01-20T12:54:18.407Z,2.80
2023-01-20T12:57:06.527Z,2.80
2023-01-20T12:59:48.835Z,2.80
2023-01-20T13:02:54.311Z,2.80
2023-01-20T13:05:55.973Z,2.70
2023-01-20T13:08:45.803Z,2.60
2023-01-20T13:11:26.935Z,2.70
2023-01-20T13:14:14.510Z,2.70
2023-01-20T13:16:50.610Z,2.60
2023-01-20T13:19:37.942Z,2.60
2023-01-20T13:22:23.083Z,2.60
2023-01-20T13:24:55.717Z,2.50
2023-01-20T13:27:28.133Z,2.60
2023-01-20T13:30:00.144Z,2.60
2023-01-20T13:32:48.494Z,2.60
2023-01-20T13:35:18.120Z,2.50
2023-01-20T13:37:56.731Z,2.50
2023-01-20T13:40:39.159Z,2.40
2023-01-20T13:43:29.378Z,2.40
2023-01-20T13:46:05.824Z,2.40
2023-01-20T13:48:34.493Z,2.40
2023-01-20T13:51:17.019Z,2.40
2023-01-20T13:53:44.383Z,2.30
2023-01-20T13:56:26.474Z,2.40
2023-01-20T13:58:55.040Z,2.40
2023-01-20T14:01:22.687Z,2.40
2023-01-20T14:04:16.519Z,2.40
2023-01-20T14:06:52.545Z,2.40
2023-01-20T14:09:24.388Z,2.50
2023-01-20T14:11:54.123Z,2.40
2023-01-20T14:14:26.025Z,2.50
2023-01-20T14:16:53.682Z,2.50
2023-01-20T14:19:33.338Z,2.60
2023-01-20T14:22:03.344Z,2.40
2023-01-20T14:24:36.028Z,2.40
2023-01-20T14:27:20.941Z,2.50
2023-01-20T14:29:50.307Z,2.40
2023-01-20T14:32:28.298Z,2.40
2023-01-20T14:34:56.970Z,2.50
2023-01-20T14:37:28.087Z,2.40
2023-01-20T14:39:59.305Z,2.50
2023-01-20T14:42:27.897Z,2.50
2023-01-20T14:44:57.136Z,2.40
2023-01-20T14:47:26.803Z,2.40
2023-01-20T14:49:54.629Z,2.40
2023-01-20T14:52:24.709Z,2.40
2023-01-20T14:54:51.792Z,2.50
2023-01-20T14:57:31.761Z,2.50
2023-01-20T15:00:15.417Z,2.50
2023-01-20T15:03:09.478Z,2.60
2023-01-20T15:05:40.479Z,2.40
2023-01-20T15:08:26.732Z,2.30
2023-01-20T15:11:16.467Z,2.20
2023-01-20T15:14:05.354Z,2.20
2023-01-20T15:16:41.930Z,2.20
2023-01-20T15:19:18.518Z,2.20
2023-01-20T15:21:51.385Z,2.20
2023-01-20T15:24:22.651Z,2.20
2023-01-20T15:26:52.551Z,2.20
2023-01-20T15:29:34.004Z,2.20
2023-01-20T15:32:09.154Z,2.10
2023-01-20T15:34:36.882Z,2.00
2023-01-20T15:37:15.806Z,2.10
2023-01-20T15:39:42.818Z,2.00
2023-01-20T15:42:15.309Z,2.00
2023-01-20T15:44:42.098Z,1.90
2023-01-20T15:47:27.115Z,1.90
2023-01-20T15:49:54.307Z,1.80
2023-01-20T15:52:21.051Z,1.80
2023-01-20T15:54:48.096Z,1.80
2023-01-20T15:57:16.883Z,1.80
2023-01-20T15:59:47.638Z,1.70
2023-01-20T16:02:21.390Z,1.60
2023-01-20T16:04:48.753Z,1.50
2023-01-20T16:07:18.119Z,1.60
2023-01-20T16:09:46.790Z,1.50
2023-01-20T16:12:18.487Z,1.50
2023-01-20T16:14:45.848Z,1.40
2023-01-20T16:17:15.119Z,1.40
2023-01-20T16:19:42.076Z,1.30
2023-01-20T16:22:10.497Z,1.30
2023-01-20T16:24:38.215Z,1.40
2023-01-20T16:27:19.401Z,1.20
2023-01-20T16:29:46.831Z,1.30
2023-01-20T16:32:16.680Z,1.20
2023-01-20T16:34:44.823Z,1.10
2023-01-20T16:37:14.580Z,1.00
2023-01-20T16:39:41.657Z,1.10
2023-01-20T16:42:14.161Z,1.10
2023-01-20T16:44:41.840Z,1.20
2023-01-20T16:47:08.722Z,1.20
2023-01-20T16:49:35.758Z,1.20
2023-01-20T16:52:02.916Z,1.10
2023-01-20T16:54:29.765Z,1.10
2023-01-20T16:56:56.575Z,1.10
2023-01-20T16:59:23.352Z,1.10
2023-01-20T17:01:50.355Z,1.10
2023-01-20T17:04:17.449Z,1.10
2023-01-20T17:06:44.393Z,1.10
2023-01-20T17:09:11.884Z,1.00
2023-01-20T17:11:40.895Z,1.00
2023-01-20T17:14:10.482Z,0.90
2023-01-20T17:16:38.588Z,0.90
2023-01-20T17:19:05.937Z,0.80
2023-01-20T17:21:37.147Z,0.80
2023-01-20T17:24:05.229Z,0.70
2023-01-20T17:26:32.578Z,0.70
2023-01-20T17:29:02.612Z,0.70
2023-01-20T17:31:33.338Z,0.60
2023-01-20T17:34:00.455Z,0.60
2023-01-20T17:36:27.627Z,0.50
2023-01-20T17:38:54.657Z,0.40
2023-01-20T17:41:21.431Z,0.40
2023-01-20T17:43:48.299Z,0.20
2023-01-20T17:46:18.251Z,0.20
2023-01-20T17:48:46.435Z,0.20
2023-01-20T17:51:16.398Z,0.10
2023-01-20T17:53:44.395Z,0.10
2023-01-20T17:56:13.609Z,0.00
2023-01-20T17:58:42.485Z,-0.10
2023-01-20T18:01:10.503Z,-0.10
2023-01-20T18:03:39.999Z,-0.10
2023-01-20T18:06:09.324Z,-0.10
2023-01-20T18:08:38.882Z,-0.20
2023-01-20T18:11:10.648Z,-0.20
2023-01-20T18:13:37.543Z,-0.20
2023-01-20T18:16:08.925Z,-0.20
2023-01-20T18:18:35.760Z,-0.20
2023-01-20T18:21:33.310Z,-0.20
2023-01-20T18:24:00.998Z,-0.20
2023-01-20T18:26:31.368Z,-0.20
2023-01-20T18:29:02.791Z,-0.30
2023-01-20T18:31:34.236Z,-0.40
2023-01-20T18:34:04.373Z,-0.30
2023-01-20T18:36:37.171Z,-0.40
2023-01-20T18:39:12.489Z,-0.50
2023-01-20T18:41:40.149Z,-0.50
2023-01-20T18:44:07.780Z,-0.50
2023-01-20T18:46:34.922Z,-0.50
2023-01-20T18:49:02.232Z,-0.50
2023-01-20T18:51:30.558Z,-0.50
2023-01-20T18:54:04.546Z,-0.50
2023-01-20T18:56:33.387Z,-0.60
2023-01-20T18:59:01.602Z,-0.60
2023-01-20T19:01:33.725Z,-0.70
2023-01-20T19:04:02.184Z,-0.70
2023-01-20T19:06:31.316Z,-0.70
2023-01-20T19:08:59.352Z,-0.70
2023-01-20T19:11:28.822Z,-0.80
2023-01-20T19:13:56.322Z,-0.80
2023-01-20T19:16:34.466Z,-0.80
2023-01-20T19:19:05.283Z,-0.90
2023-01-20T19:21:33.212Z,-0.90
2023-01-20T19:24:05.917Z,-0.90
2023-01-20T19:26:35.699Z,-0.90
2023-01-20T19:29:08.133Z,-0.90
2023-01-20T19:31:38.783Z,-0.90
2023-01-20T19:34:07.582Z,-1.00
2023-01-20T19:36:34.796Z,-1.00
2023-01-20T19:39:01.718Z,-1.00
2023-01-20T19:41:34.613Z,-1.00
2023-01-20T19:44:03.230Z,-1.00
2023-01-20T19:46:33.065Z,-1.00
2023-01-20T19:49:01.488Z,-1.00
2023-01-20T19:51:29.640Z,-1.10
2023-01-20T19:53:58.490Z,-1.10
2023-01-20T19:56:27.732Z,-1.10
2023-01-20T19:58:55.324Z,-1.10
2023-01-20T20:01:31.525Z,-1.10
2023-01-20T20:03:59.104Z,-1.10
2023-01-20T20:06:31.274Z,-1.20
2023-01-20T20:09:12.773Z,-1.10
2023-01-20T20:11:40.166Z,-1.10
2023-01-20T20:14:09.201Z,-1.10
2023-01-20T20:16:38.008Z,-1.10
2023-01-20T20:19:06.582Z,-1.10
2023-01-20T20:21:34.743Z,-1.10
2023-01-20T20:24:02.722Z,-1.10
2023-01-20T20:26:32.218Z,-1.10
2023-01-20T20:29:00.754Z,-1.10
2023-01-20T20:31:31.517Z,-1.20
2023-01-20T20:33:59.209Z,-1.30
2023-01-20T20:36:31.065Z,-1.20
2023-01-20T20:38:59.743Z,-1.20
2023-01-20T20:41:29.327Z,-1.20
2023-01-20T20:43:57.514Z,-1.20
2023-01-20T20:46:24.847Z,-1.20
2023-01-20T20:48:56.565Z,-1.20
2023-01-20T20:51:24.199Z,-1.30
2023-01-20T20:53:55.299Z,-1.30
2023-01-20T20:56:23.255Z,-1.30
2023-01-20T20:59:00.927Z,-1.40
2023-01-20T21:01:32.388Z,-1.40
2023-01-20T21:04:00.608Z,-1.40
2023-01-20T21:06:28.507Z,-1.40
2023-01-20T21:08:55.680Z,-1.40
2023-01-20T21:11:24.182Z,-1.40
2023-01-20T21:13:52.308Z,-1.40
2023-01-20T21:16:22.232Z,-1.40
2023-01-20T21:18:50.811Z,-1.30
2023-01-20T21:21:19.311Z,-1.40
2023-01-20T21:23:50.935Z,-1.50
2023-01-20T21:26:18.765Z,-1.50
2023-01-20T21:28:49.140Z,-1.50
2023-01-20T21:31:20.981Z,-1.50
2023-01-20T21:33:53.601Z,-1.50
2023-01-20T21:36:21.265Z,-1.50
2023-01-20T21:38:48.283Z,-1.50
2023-01-20T21:41:16.730Z,-1.50
2023-01-20T21:44:04.491Z,-1.60
2023-01-20T21:46:37.194Z,-1.60
2023-01-20T21:49:24.084Z,-1.60
2023-01-20T21:52:09.390Z,-1.70
2023-01-20T21:54:36.557Z,-1.60
2023-01-20T21:57:03.503Z,-1.60
2023-01-20T21:59:30.459Z,-1.50
2023-01-20T22:01:57.971Z,-1.50
2023-01-20T22:04:24.892Z,-1.60
2023-01-20T22:06:52.062Z,-1.50
2023-01-20T22:09:18.848Z,-1.50
2023-01-20T22:11:45.708Z,-1.50
2023-01-20T22:14:12.817Z,-1.50
2023-01-20T22:16:39.798Z,-1.50
2023-01-20T22:19:07.045Z,-1.60
2023-01-20T22:21:34.003Z,-1.60
2023-01-20T22:24:02.876Z,-1.60
2023-01-20T22:26:30.001Z,-1.50
2023-01-20T22:28:57.588Z,-1.60
2023-01-20T22:31:25.210Z,-1.60
2023-01-20T22:33:56.853Z,-1.60
2023-01-20T22:36:24.824Z,-1.50
2023-01-20T22:38:53.006Z,-1.50
2023-01-20T22:41:20.758Z,-1.50
2023-01-20T22:43:48.314Z,-1.50
2023-01-20T22:46:17.022Z,-1.40
2023-01-20T22:48:44.463Z,-1.40
2023-01-20T22:51:13.963Z,-1.50
2023-01-20T22:53:41.358Z,-1.60
2023-01-20T22:56:15.957Z,-1.70
2023-01-20T22:58:46.191Z,-1.70
2023-01-20T23:01:21.985Z,-1.80
2023-01-20T23:03:53.083Z,-1.80
2023-01-20T23:06:20.104Z,-1.90
2023-01-20T23:08:47.105Z,-1.90
2023-01-20T23:11:15.970Z,-1.90
2023-01-20T23:13:43.182Z,-1.90
2023-01-20T23:16:16.573Z,-2.00
2023-01-20T23:18:43.940Z,-2.00
2023-01-20T23:21:10.995Z,-2.00
2023-01-20T23:23:38.218Z,-2.00
2023-01-20T23:26:15.357Z,-2.00
2023-01-20T23:28:43.723Z,-2.00
2023-01-20T23:31:12.486Z,-1.90
2023-01-20T23:33:41.371Z,-2.00
2023-01-20T23:36:16.445Z,-2.00
2023-01-20T23:38:44.057Z,-1.90
2023-01-20T23:41:12.146Z,-2.00
2023-01-20T23:43:39.207Z,-2.00
2023-01-20T23:46:06.784Z,-1.90
2023-01-20T23:48:34.868Z,-1.90
2023-01-20T23:51:02.180Z,-1.90
2023-01-20T23:53:31.231Z,-1.90
2023-01-20T23:56:05.690Z,-1.90
2023-01-20T23:58:32.644Z,-1.90
